Time;durP1;ratioP1;P1;durP2;ratioP2;P2;SDS_P1;SDS_P2;PMS_P1;PMS_P2;Temp;Humidity;BMP_temperature;BMP_pressure;BME280_temperature;BME280_humidity;BME280_pressure;Samples;Min_cycle;Max_cycle;Signal;HPM_P1;HPM_P2
2023/02/14 00:02:02;;;;;;;83.40;32.08;;;;;;;-1.15;100.00;99014.31;5060676;28;20036;-77
2023/02/14 00:04:28;;;;;;;72.03;31.88;;;;;;;-1.16;100.00;99009.94;5079929;28;20077;-77
2023/02/14 00:06:53;;;;;;;83.28;33.63;;;;;;;-1.15;100.00;99006.44;5084015;28;20423;-76
2023/02/14 00:09:19;;;;;;;83.72;33.15;;;;;;;-1.19;100.00;99010.78;5065334;28;20065;-76
2023/02/14 00:11:44;;;;;;;82.00;33.22;;;;;;;-1.29;100.00;98992.34;5062174;28;20115;-78
2023/02/14 00:16:55;;;;;;;82.22;31.55;;;;;;;-1.28;100.00;99001.97;5069866;28;20111;-78
2023/02/14 00:19:21;;;;;;;70.18;29.23;;;;;;;-1.26;100.00;99008.13;5062239;28;20115;-77
2023/02/14 00:21:47;;;;;;;82.75;32.92;;;;;;;-1.22;100.00;99018.66;5081685;28;20024;-76
2023/02/14 00:24:17;;;;;;;74.63;31.95;;;;;;;-1.21;100.00;99007.28;5065646;28;20583;-76
2023/02/14 00:26:43;;;;;;;82.70;31.85;;;;;;;-1.23;100.00;99005.53;5067541;28;20412;-77
2023/02/14 00:29:13;;;;;;;80.43;30.63;;;;;;;-1.22;100.00;99010.78;5064430;28;20046;-77
2023/02/14 00:31:39;;;;;;;81.00;32.63;;;;;;;-1.24;100.00;99004.66;5085871;28;20043;-77
2023/02/14 00:34:05;;;;;;;83.40;33.60;;;;;;;-1.18;100.00;99014.31;5066782;28;20028;-78
2023/02/14 00:36:31;;;;;;;97.70;37.78;;;;;;;-1.25;100.00;98988.88;5074073;28;20062;-77
2023/02/14 00:38:57;;;;;;;99.45;38.33;;;;;;;-1.22;100.00;98999.38;5061364;28;20056;-78
2023/02/14 00:41:22;;;;;;;125.78;47.00;;;;;;;-1.19;100.00;98984.53;5057625;28;20070;-78
2023/02/14 00:43:52;;;;;;;143.88;52.28;;;;;;;-1.16;100.00;98986.31;5069289;28;20594;-78
2023/02/14 00:46:18;;;;;;;119.38;46.38;;;;;;;-1.19;100.00;98978.41;5057478;28;20029;-78
2023/02/14 00:48:44;;;;;;;108.80;43.67;;;;;;;-1.12;100.00;98986.34;5060161;28;20039;-78
2023/02/14 00:51:10;;;;;;;126.28;43.28;;;;;;;-1.19;100.00;98979.28;5066394;28;20035;-78
2023/02/14 00:53:36;;;;;;;98.28;34.03;;;;;;;-1.15;100.00;98986.34;5084160;28;20034;-77
2023/02/14 00:56:03;;;;;;;96.68;35.78;;;;;;;-1.14;100.00;98987.22;5076223;28;20555;-77
2023/02/14 00:58:29;;;;;;;115.72;43.92;;;;;;;-1.24;100.00;98988.91;5074234;28;20115;-77
2023/02/14 01:00:54;;;;;;;135.05;49.17;;;;;;;-1.23;100.00;98988.00;5060636;28;20569;-77
2023/02/14 01:03:20;;;;;;;123.85;47.92;;;;;;;-1.25;100.00;98994.13;5069391;28;20090;-76
2023/02/14 01:05:46;;;;;;;122.65;46.30;;;;;;;-1.20;100.00;98997.69;5061073;28;20020;-77
2023/02/14 01:08:12;;;;;;;115.35;42.55;;;;;;;-1.15;100.00;98991.59;5056745;28;20025;-78
2023/02/14 01:10:37;;;;;;;117.72;43.50;;;;;;;-1.15;100.00;98993.34;5069425;28;20016;-77
2023/02/14 01:13:03;;;;;;;125.78;46.60;;;;;;;-1.14;100.00;98977.56;5071917;28;20020;-77
2023/02/14 01:15:30;;;;;;;113.88;40.65;;;;;;;-1.20;100.00;98967.03;5072491;28;20024;-77
2023/02/14 01:17:57;;;;;;;97.03;38.28;;;;;;;-1.22;100.00;98962.66;5081287;28;20060;-78
2023/02/14 01:20:23;;;;;;;100.80;39.28;;;;;;;-1.28;100.00;98949.47;5085467;28;20027;-77
2023/02/14 01:22:48;;;;;;;108.32;43.25;;;;;;;-1.31;100.00;98959.94;5088175;28;20031;-77
2023/02/14 01:25:14;;;;;;;109.90;42.60;;;;;;;-1.24;100.00;98954.78;5071988;28;20075;-77
2023/02/14 01:27:40;;;;;;;99.70;39.65;;;;;;;-1.31;100.00;98950.34;5084823;28;20074;-77
2023/02/14 01:30:06;;;;;;;93.45;37.83;;;;;;;-1.36;100.00;98962.56;5063635;28;20073;-78
2023/02/14 01:32:32;;;;;;;99.45;38.17;;;;;;;-1.25;100.00;98970.50;5067927;28;20020;-77
2023/02/14 01:34:58;;;;;;;92.38;36.55;;;;;;;-1.26;100.00;98966.13;5093079;28;20029;-77
2023/02/14 01:37:24;;;;;;;90.82;35.60;;;;;;;-1.28;100.00;98957.34;5060686;28;20488;-77
2023/02/14 01:39:49;;;;;;;99.35;37.70;;;;;;;-1.26;100.00;98969.63;5070701;28;20032;-77
2023/02/14 01:42:15;;;;;;;85.32;36.35;;;;;;;-1.29;100.00;98968.75;5057779;28;20028;-77
2023/02/14 01:44:43;;;;;;;86.95;34.83;;;;;;;-1.24;100.00;98969.63;5077463;28;20193;-77
2023/02/14 01:47:09;;;;;;;92.68;35.28;;;;;;;-1.29;100.00;98974.00;5079957;28;20636;-78
2023/02/14 01:49:38;;;;;;;93.20;35.53;;;;;;;-1.43;100.00;98967.72;5085330;28;20107;-78
2023/02/14 01:52:10;;;;;;;98.22;34.33;;;;;;;-1.59;100.00;98964.09;5075715;28;20073;-78
2023/02/14 01:54:39;;;;;;;77.57;26.85;;;;;;;-1.61;100.00;98975.44;5081404;28;20593;-78
2023/02/14 01:57:08;;;;;;;82.03;30.67;;;;;;;-1.72;100.00;98957.88;5072705;28;20091;-77
2023/02/14 01:59:37;;;;;;;82.00;30.13;;;;;;;-1.73;100.00;98973.59;5071897;28;20046;-77
2023/02/14 02:02:03;;;;;;;66.82;26.05;;;;;;;-1.83;100.00;98954.28;5059855;28;20115;-77
2023/02/14 02:04:33;;;;;;;68.35;25.90;;;;;;;-1.78;100.00;98947.31;5091633;28;20067;-77
2023/02/14 02:07:02;;;;;;;66.05;24.25;;;;;;;-1.76;100.00;98957.84;5060199;28;20056;-78
2023/02/14 02:09:55;;;;;;;69.75;26.58;;;;;;;-1.82;100.00;98950.81;5072078;28;20506;-77
2023/02/14 02:12:21;;;;;;;64.43;25.27;;;;;;;-1.72;100.00;98936.00;5068097;28;20059;-77
2023/02/14 02:14:50;;;;;;;67.30;27.55;;;;;;;-1.66;100.00;98929.06;5085141;28;20024;-77
2023/02/14 02:17:27;;;;;;;77.28;29.08;;;;;;;-1.57;100.00;98932.66;5075254;28;20033;-77
2023/02/14 02:20:11;;;;;;;74.80;29.45;;;;;;;-1.59;100.00;98937.88;5068445;28;20043;-77
2023/02/14 02:22:47;;;;;;;69.28;27.95;;;;;;;-1.58;100.00;98930.88;5072773;28;20434;-77
2023/02/14 02:25:26;;;;;;;72.05;28.92;;;;;;;-1.52;100.00;98942.31;5064765;28;20033;-77
2023/02/14 02:28:30;;;;;;;70.35;29.67;;;;;;;-1.54;100.00;98933.56;5058815;28;20031;-77
2023/02/14 02:31:20;;;;;;;72.28;27.73;;;;;;;-1.53;100.00;98929.16;5030640;28;20025;-77
2023/02/14 02:33:57;;;;;;;75.53;28.52;;;;;;;-1.65;100.00;98930.84;5055759;28;20032;-77
2023/02/14 02:37:04;;;;;;;70.00;26.40;;;;;;;-1.66;100.00;98938.69;5067468;28;20090;-77
2023/02/14 02:39:38;;;;;;;60.55;25.63;;;;;;;-1.67;100.00;98935.19;5065656;28;20094;-77
2023/02/14 02:42:04;;;;;;;73.80;26.92;;;;;;;-1.71;100.00;98943.00;5065738;28;20032;-78
2023/02/14 02:44:52;;;;;;;80.07;31.08;;;;;;;-1.81;100.00;98944.66;5069561;28;20403;-77
2023/02/14 02:47:30;;;;;;;93.65;34.03;;;;;;;-1.79;100.00;98939.47;5058132;28;20051;-77
2023/02/14 02:53:13;;;;;;;124.25;43.10;;;;;;;-1.96;100.00;98938.41;5062594;28;20040;-78
2023/02/14 02:58:33;;;;;;;78.60;30.92;;;;;;;-2.06;100.00;98929.56;5068913;28;20075;-77
2023/02/14 03:01:01;;;;;;;98.07;35.58;;;;;;;-2.01;100.00;98932.25;5062894;28;20031;-77
2023/02/14 03:06:11;;;;;;;102.32;37.70;;;;;;;-1.99;100.00;98928.78;5066492;28;20039;-77
2023/02/14 03:08:37;;;;;;;103.53;39.67;;;;;;;-2.01;100.00;98924.38;5070795;28;20028;-77
2023/02/14 03:11:03;;;;;;;96.43;35.15;;;;;;;-1.96;100.00;98925.28;5040566;28;20017;-77
2023/02/14 03:14:21;;;;;;;86.38;33.35;;;;;;;-1.89;100.00;98925.38;5034420;28;20025;-77
2023/02/14 03:17:08;;;;;;;187.93;61.53;;;;;;;-1.83;100.00;98925.44;5055853;28;20048;-77
2023/02/14 03:22:47;;;;;;;147.77;48.92;;;;;;;-1.84;100.00;98913.19;5091544;28;20050;-78
2023/02/14 03:25:23;;;;;;;115.55;37.30;;;;;;;-1.86;100.00;98899.19;5078573;28;20024;-78
2023/02/14 03:27:58;;;;;;;110.03;39.30;;;;;;;-1.90;100.00;98894.78;5053786;28;20373;-78
2023/02/14 03:30:40;;;;;;;96.85;35.58;;;;;;;-1.85;100.00;98893.09;5060087;28;20037;-78
2023/02/14 03:33:32;;;;;;;;;;;;;;;-1.87;100.00;98883.44;5076339;28;20122;-78
2023/02/14 03:36:30;;;;;;;90.05;34.70;;;;;;;-1.94;100.00;98884.25;5075598;28;19912;-78
2023/02/14 03:39:21;;;;;;;103.43;35.97;;;;;;;-2.07;100.00;98871.91;5048334;28;20506;-77
2023/02/14 03:41:55;;;;;;;69.27;30.90;;;;;;;-2.13;100.00;98872.75;5046837;28;20082;-78
2023/02/14 03:44:24;;;;;;;117.55;40.35;;;;;;;-2.11;100.00;98884.09;5068425;28;20027;-79
2023/02/14 03:46:58;;;;;;;132.82;43.53;;;;;;;-2.20;100.00;98860.44;5070475;28;20032;-78
2023/02/14 03:49:28;;;;;;;127.40;45.38;;;;;;;-2.16;100.00;98877.06;5076267;28;20062;-79
2023/02/14 03:51:55;;;;;;;127.32;46.22;;;;;;;-2.21;100.00;98877.00;5081250;28;20540;-78
2023/02/14 03:54:23;;;;;;;128.63;49.70;;;;;;;-2.16;100.00;98877.94;5068467;28;20027;-78
2023/02/14 03:56:51;;;;;;;140.15;50.65;;;;;;;-2.22;100.00;98878.78;5061134;28;20389;-78
2023/02/14 03:59:23;;;;;;;131.60;48.15;;;;;;;-2.20;100.00;98886.63;5070198;28;20025;-78
2023/02/14 04:02:09;;;;;;;128.02;49.38;;;;;;;-2.22;100.00;98891.00;5069237;28;20031;-78
2023/02/14 04:04:38;;;;;;;127.75;45.95;;;;;;;-2.25;100.00;98883.09;5057063;28;20071;-78
2023/02/14 04:07:18;;;;;;;117.63;42.38;;;;;;;-2.30;100.00;98880.41;5055715;28;20430;-78
2023/02/14 04:09:52;;;;;;;113.32;41.35;;;;;;;-2.35;100.00;98876.00;5056428;28;20025;-79
2023/02/14 04:12:18;;;;;;;111.15;40.63;;;;;;;-2.35;100.00;98876.00;5072436;28;20048;-79
2023/02/14 04:14:44;;;;;;;112.25;38.90;;;;;;;-2.51;100.00;98863.59;5086172;28;20032;-78
2023/02/14 04:19:53;;;;;;;72.57;24.60;;;;;;;-2.68;100.00;98873.03;5080888;28;20051;-78
2023/02/14 04:22:19;;;;;;;76.63;29.70;;;;;;;-2.75;100.00;98870.34;5085833;28;20021;-78
2023/02/14 04:24:47;;;;;;;75.97;27.90;;;;;;;-2.74;100.00;98856.38;5052924;28;20051;-78
2023/02/14 04:27:13;;;;;;;98.50;36.55;;;;;;;-2.68;100.00;98859.94;5082553;28;20415;-79
2023/02/14 04:29:44;;;;;;;98.85;35.88;;;;;;;-2.64;100.00;98861.72;5090207;28;20028;-76
2023/02/14 04:32:15;;;;;;;83.28;32.58;;;;;;;-2.69;100.00;98847.69;5056534;28;20043;-79
2023/02/14 04:34:41;;;;;;;106.80;39.97;;;;;;;-2.62;100.00;98854.78;5073122;28;20027;-78
2023/02/14 04:37:07;;;;;;;120.90;41.95;;;;;;;-2.64;100.00;98832.91;5073319;28;20480;-78
2023/02/14 04:39:32;;;;;;;121.53;40.92;;;;;;;-2.64;100.00;98836.41;5075862;28;20020;-78
2023/02/14 04:41:58;;;;;;;119.75;39.80;;;;;;;-2.61;100.00;98838.19;5052308;28;20024;-78
2023/02/14 04:44:24;;;;;;;97.75;36.50;;;;;;;-2.69;100.00;98837.22;5068051;28;20030;-78
2023/02/14 04:46:49;;;;;;;86.35;32.92;;;;;;;-2.71;100.00;98838.97;5085931;28;20070;-74
2023/02/14 04:49:15;;;;;;;105.40;42.78;;;;;;;-2.76;100.00;98836.28;5056249;28;20025;-74
2023/02/14 04:51:40;;;;;;;101.93;39.92;;;;;;;-2.84;100.00;98836.22;5064815;28;20094;-75
2023/02/14 04:54:06;;;;;;;102.13;39.75;;;;;;;-2.84;100.00;98849.28;5072970;28;20028;-75
2023/02/14 04:56:31;;;;;;;124.95;44.42;;;;;;;-2.87;100.00;98848.38;5086512;28;20109;-74
2023/02/14 04:58:57;;;;;;;121.57;45.15;;;;;;;-2.87;100.00;98849.25;5093004;28;20089;-74
2023/02/14 05:01:23;;;;;;;107.57;40.15;;;;;;;-2.86;100.00;98856.22;5089615;28;20446;-74
2023/02/14 05:03:48;;;;;;;114.88;43.75;;;;;;;-2.93;100.00;98859.66;5080179;28;20048;-74
2023/02/14 05:06:14;;;;;;;107.30;38.63;;;;;;;-2.95;100.00;98853.50;5090694;28;20032;-74
2023/02/14 05:08:39;;;;;;;110.28;36.80;;;;;;;-3.07;100.00;98850.75;5072805;28;20107;-74
2023/02/14 05:11:05;;;;;;;92.57;32.67;;;;;;;-3.15;100.00;98847.16;5072612;28;20024;-75
2023/02/14 05:13:33;;;;;;;85.80;32.85;;;;;;;-3.09;100.00;98862.94;5056194;28;20026;-74
2023/02/14 05:15:59;;;;;;;84.78;30.88;;;;;;;-2.96;100.00;98869.22;5072891;28;20081;-74
2023/02/14 05:18:25;;;;;;;93.55;33.85;;;;;;;-3.01;100.00;98855.16;5095185;28;20047;-79
2023/02/14 05:20:52;;;;;;;92.47;34.55;;;;;;;-3.04;100.00;98850.78;5072628;28;20031;-77
2023/02/14 05:23:18;;;;;;;84.30;36.38;;;;;;;-2.97;100.00;98857.84;5056716;28;20036;-78
2023/02/14 05:25:43;;;;;;;108.90;40.22;;;;;;;-3.00;100.00;98847.34;5056467;28;20120;-79
2023/02/14 05:28:09;;;;;;;104.18;38.65;;;;;;;-2.98;100.00;98850.84;5076455;28;20034;-78
2023/02/14 05:30:36;;;;;;;120.57;45.03;;;;;;;-2.97;100.00;98847.38;5058999;28;20123;-80
2023/02/14 05:33:01;;;;;;;140.30;52.75;;;;;;;-2.94;100.00;98857.88;5076326;28;20032;-76
2023/02/14 05:35:27;;;;;;;145.65;53.40;;;;;;;-3.07;100.00;98840.28;5061939;28;20040;-77
2023/02/14 05:37:53;;;;;;;122.65;46.70;;;;;;;-2.85;100.00;98883.28;5102677;28;20111;-76
2023/02/14 05:40:18;;;;;;;147.38;53.67;;;;;;;-2.85;100.00;98872.81;5081582;28;20418;-76
2023/02/14 05:42:44;;;;;;;154.60;57.30;;;;;;;-2.75;100.00;98875.56;5078609;28;20100;-77
2023/02/14 05:45:10;;;;;;;152.07;54.95;;;;;;;-2.71;100.00;98871.25;5058129;28;20039;-77
2023/02/14 05:47:36;;;;;;;89.10;33.40;;;;;;;-2.71;100.00;98870.38;5073011;28;20464;-76
2023/02/14 05:50:02;;;;;;;89.57;36.45;;;;;;;-2.75;100.00;98862.50;5095078;28;20035;-75
2023/02/14 05:52:27;;;;;;;104.05;39.08;;;;;;;-2.74;100.00;98872.06;5071644;28;20533;-75
2023/02/14 05:54:53;;;;;;;85.63;34.10;;;;;;;-2.69;100.00;98881.72;5059282;28;20032;-75
2023/02/14 05:57:18;;;;;;;91.10;34.40;;;;;;;-2.64;100.00;98877.41;5070108;28;20043;-76
2023/02/14 05:59:44;;;;;;;86.18;33.63;;;;;;;-2.60;100.00;98873.97;5082498;28;20492;-75
2023/02/14 06:02:09;;;;;;;73.15;31.77;;;;;;;-2.54;100.00;98858.34;5083925;28;20028;-76
2023/02/14 06:04:35;;;;;;;93.28;37.33;;;;;;;-2.32;100.00;98873.41;5088462;28;20042;-74
2023/02/14 06:07:00;;;;;;;96.65;36.38;;;;;;;-2.33;100.00;98861.16;5067589;28;20046;-75
2023/02/14 06:09:28;;;;;;;92.90;34.92;;;;;;;-2.15;100.00;98863.97;5092450;28;20027;-76
2023/02/14 06:11:54;;;;;;;92.18;35.40;;;;;;;-1.84;100.00;98863.38;5063041;28;20024;-75
2023/02/14 06:14:22;;;;;;;112.35;37.60;;;;;;;-1.66;100.00;98860.88;5074308;28;20040;-75
2023/02/14 06:16:48;;;;;;;87.13;34.13;;;;;;;-1.39;100.00;98859.31;5061118;28;20035;-75
2023/02/14 06:19:13;;;;;;;101.38;39.75;;;;;;;-1.24;100.00;98846.28;5066534;28;20056;-75
2023/02/14 06:21:39;;;;;;;96.18;37.70;;;;;;;-0.15;100.00;98868.53;5062774;28;20038;-75
2023/02/14 06:24:04;;;;;;;97.05;39.58;;;;;;;0.80;100.00;98854.47;5061329;28;20070;-76
2023/02/14 06:26:30;;;;;;;97.32;34.65;;;;;;;2.16;100.00;98839.69;5067403;28;20027;-76
2023/02/14 06:28:57;;;;;;;87.70;35.22;;;;;;;3.33;100.00;98804.13;5074225;28;20024;-76
2023/02/14 06:31:23;;;;;;;84.38;35.22;;;;;;;4.26;100.00;98775.38;5062845;28;20038;-75
2023/02/14 06:33:49;;;;;;;92.30;36.10;;;;;;;5.05;92.54;98737.63;5080841;28;20031;-76
2023/02/14 06:36:15;;;;;;;90.47;38.75;;;;;;;5.72;84.89;98731.66;5069838;28;20059;-76
2023/02/14 06:38:41;;;;;;;90.00;36.83;;;;;;;6.08;76.69;98684.81;5087755;28;20103;-76
2023/02/14 06:41:08;;;;;;;90.47;39.00;;;;;;;6.54;72.35;98666.72;5063467;28;20483;-76
2023/02/14 06:43:34;;;;;;;99.30;44.10;;;;;;;6.59;69.65;98652.41;5080193;28;20020;-76
2023/02/14 06:46:00;;;;;;;83.20;37.13;;;;;;;6.63;69.85;98636.34;5074660;28;20101;-76
2023/02/14 06:48:26;;;;;;;80.05;37.20;;;;;;;7.05;68.39;98623.53;5083018;28;20467;-76
2023/02/14 06:50:51;;;;;;;74.07;35.75;;;;;;;7.91;64.27;98610.06;5060420;28;20031;-75
2023/02/14 06:53:18;;;;;;;87.88;39.97;;;;;;;8.16;61.88;98578.97;5071428;28;20461;-74
2023/02/14 06:55:43;;;;;;;108.60;47.47;;;;;;;7.84;61.93;98562.41;5083086;28;20020;-75
2023/02/14 06:58:09;;;;;;;84.30;39.17;;;;;;;8.39;60.59;98574.66;5071517;28;20497;-75
2023/02/14 07:00:34;;;;;;;87.65;39.67;;;;;;;8.85;58.17;98571.13;5085603;28;20033;-76
2023/02/14 07:03:00;;;;;;;93.75;43.95;;;;;;;8.56;58.47;98558.88;5090937;28;20028;-75
2023/02/14 07:05:25;;;;;;;94.47;43.55;;;;;;;8.86;58.37;98555.03;5085453;28;20468;-74
2023/02/14 07:07:51;;;;;;;104.90;48.00;;;;;;;8.82;58.74;98563.22;5062176;28;20028;-75
2023/02/14 07:10:17;;;;;;;120.95;57.10;;;;;;;8.52;58.25;98538.63;5090924;28;20520;-77
2023/02/14 07:12:42;;;;;;;160.50;75.70;;;;;;;8.04;60.21;98533.25;5086096;28;20027;-75
2023/02/14 07:15:09;;;;;;;154.25;69.95;;;;;;;8.34;60.68;98561.47;5091629;28;20084;-74
2023/02/14 07:17:34;;;;;;;140.50;63.78;;;;;;;8.71;59.24;98550.28;5066114;28;20568;-76
2023/02/14 07:20:00;;;;;;;116.57;52.58;;;;;;;8.41;59.42;98525.66;5069230;28;20028;-76
2023/02/14 07:22:25;;;;;;;111.50;48.15;;;;;;;8.46;59.81;98541.50;5087747;28;20080;-76
2023/02/14 07:24:51;;;;;;;103.85;48.47;;;;;;;8.91;59.51;98554.88;5087014;28;20111;-75
2023/02/14 07:27:16;;;;;;;100.47;45.00;;;;;;;8.90;59.43;98529.97;5080793;28;20383;-75
2023/02/14 07:29:42;;;;;;;103.47;44.50;;;;;;;9.06;58.29;98528.44;5065863;28;20465;-76
2023/02/14 07:32:10;;;;;;;103.65;46.53;;;;;;;9.17;57.76;98528.88;5070950;28;20034;-76
2023/02/14 07:34:35;;;;;;;107.78;48.42;;;;;;;9.11;57.21;98521.13;5092562;28;20084;-75
2023/02/14 07:37:01;;;;;;;116.32;51.05;;;;;;;9.42;56.31;98530.53;5075778;28;20024;-75
2023/02/14 07:39:26;;;;;;;106.72;49.50;;;;;;;9.38;56.86;98544.97;5092415;28;20449;-75
2023/02/14 07:41:52;;;;;;;114.88;52.75;;;;;;;9.38;56.48;98591.22;5092777;28;20065;-75
2023/02/14 07:44:17;;;;;;;134.43;59.17;;;;;;;10.07;55.30;98614.13;5068806;28;20399;-76
2023/02/14 07:46:43;;;;;;;100.65;49.17;;;;;;;10.30;54.48;98599.81;5060505;28;20479;-76
2023/02/14 07:49:08;;;;;;;97.05;46.60;;;;;;;10.27;53.76;98598.13;5099327;28;20123;-76
2023/02/14 07:51:34;;;;;;;94.45;42.90;;;;;;;10.42;52.95;98588.56;5059059;28;20020;-76
2023/02/14 07:53:59;;;;;;;104.60;46.20;;;;;;;10.50;52.72;98585.53;5058144;28;20062;-75
2023/02/14 07:56:25;;;;;;;92.38;44.47;;;;;;;11.04;51.84;98593.72;5071770;28;20051;-76
2023/02/14 07:58:50;;;;;;;105.30;46.85;;;;;;;11.65;50.76;98599.66;5078352;28;20020;-77
2023/02/14 08:01:16;;;;;;;99.65;48.17;;;;;;;11.35;50.29;98577.91;5085583;28;20023;-76
2023/02/14 08:03:48;;;;;;;102.00;49.10;;;;;;;11.73;49.91;98588.59;5083051;28;20020;-77
2023/02/14 08:06:16;;;;;;;97.00;48.07;;;;;;;11.69;48.66;98576.25;5083638;28;20096;-76
2023/02/14 08:08:42;;;;;;;104.03;50.33;;;;;;;11.63;49.88;98600.69;5084767;28;20092;-76
2023/02/14 08:11:07;;;;;;;116.40;51.67;;;;;;;11.75;49.46;98597.44;5065267;28;20028;-76
2023/02/14 08:13:33;;;;;;;118.10;51.50;;;;;;;11.46;49.90;98584.56;5064099;28;20031;-76
2023/02/14 08:16:03;;;;;;;101.55;50.72;;;;;;;10.81;50.26;98564.47;5068454;28;20475;-76
2023/02/14 08:18:29;;;;;;;104.82;51.05;;;;;;;11.26;49.89;98573.00;5068013;28;20062;-75
2023/02/14 08:20:55;;;;;;;112.72;53.75;;;;;;;12.11;48.25;98595.56;5069626;28;20016;-75
2023/02/14 08:23:21;;;;;;;108.13;53.72;;;;;;;11.87;48.08;98580.72;5082463;28;20044;-75
2023/02/14 08:25:48;;;;;;;117.72;56.47;;;;;;;12.45;47.50;98600.06;5076760;28;20023;-76
2023/02/14 08:28:13;;;;;;;119.50;58.50;;;;;;;13.05;46.34;98601.25;5082199;28;20083;-77
2023/02/14 08:30:39;;;;;;;116.45;57.33;;;;;;;12.31;46.68;98571.25;5077022;28;20081;-75
2023/02/14 08:33:05;;;;;;;117.43;57.28;;;;;;;12.50;46.94;98574.69;5073408;28;20104;-75
2023/02/14 08:35:31;;;;;;;120.97;58.95;;;;;;;12.47;46.78;98582.03;5079348;28;20027;-75
2023/02/14 08:37:56;;;;;;;120.85;59.00;;;;;;;13.35;45.36;98594.19;5083315;28;20062;-75
2023/02/14 08:40:23;;;;;;;110.47;52.97;;;;;;;13.14;45.28;98573.03;5062030;28;20028;-75
2023/02/14 08:42:48;;;;;;;108.40;55.15;;;;;;;13.32;44.86;98577.41;5059385;28;20023;-76
2023/02/14 08:45:14;;;;;;;117.45;58.53;;;;;;;13.19;44.81;98566.47;5089699;28;20489;-76
2023/02/14 08:47:39;;;;;;;112.28;57.10;;;;;;;13.84;43.11;98575.25;5083235;28;20027;-76
2023/02/14 08:50:10;;;;;;;120.70;59.10;;;;;;;13.85;43.74;98572.47;5071400;28;20115;-76
2023/02/14 08:52:37;;;;;;;118.65;56.42;;;;;;;14.47;42.16;98571.44;5068223;28;20448;-76
2023/02/14 08:55:03;;;;;;;109.00;56.60;;;;;;;14.71;41.53;98547.50;5070950;28;20030;-76
2023/02/14 08:57:29;;;;;;;108.95;51.65;;;;;;;14.56;40.91;98535.84;5076961;28;20032;-76
2023/02/14 08:59:55;;;;;;;95.65;51.55;;;;;;;14.59;41.61;98534.78;5048942;28;20544;-76
2023/02/14 09:02:20;;;;;;;113.90;58.17;;;;;;;13.82;42.91;98513.47;5068038;28;20407;-75
2023/02/14 09:04:46;;;;;;;105.93;53.38;;;;;;;14.34;42.74;98532.75;5067920;28;20494;-76
2023/02/14 09:07:12;;;;;;;111.43;57.53;;;;;;;14.85;42.34;98538.56;5059473;28;20039;-75
2023/02/14 09:09:37;;;;;;;118.15;59.20;;;;;;;14.87;42.07;98528.53;5064408;28;20466;-78
2023/02/14 09:12:07;;;;;;;108.90;54.88;;;;;;;15.18;41.56;98531.00;5065901;28;20498;-76
2023/02/14 09:14:44;;;;;;;106.72;54.97;;;;;;;15.99;40.95;98542.72;5076275;28;20030;-76
2023/02/14 09:17:11;;;;;;;106.72;54.10;;;;;;;16.13;40.64;98537.22;5079960;28;20053;-77
2023/02/14 09:19:37;;;;;;;95.70;48.78;;;;;;;15.75;40.85;98523.63;5093256;28;20036;-74
2023/02/14 09:22:04;;;;;;;104.45;51.70;;;;;;;15.35;41.71;98525.38;5083879;28;20017;-75
2023/02/14 09:24:31;;;;;;;119.70;58.55;;;;;;;15.81;40.88;98519.66;5064179;28;20028;-75
2023/02/14 09:26:57;;;;;;;97.32;52.38;;;;;;;14.57;42.99;98502.59;5086509;28;20063;-76
2023/02/14 09:29:26;;;;;;;88.95;43.40;;;;;;;14.02;43.76;98512.28;5061366;28;20034;-76
2023/02/14 09:31:56;;;;;;;93.40;43.78;;;;;;;14.52;44.42;98537.00;5089899;28;20403;-76
2023/02/14 09:34:31;;;;;;;75.97;39.58;;;;;;;15.58;41.64;98532.84;5068041;28;20050;-76
2023/02/14 09:36:57;;;;;;;77.40;38.17;;;;;;;15.05;41.46;98501.28;5067402;28;20026;-77
2023/02/14 09:39:22;;;;;;;74.60;37.00;;;;;;;15.93;39.65;98518.84;5108914;28;20377;-77
2023/02/14 09:42:08;;;;;;;85.05;40.72;;;;;;;16.61;38.76;98514.94;5090370;28;20094;-76
2023/02/14 09:44:50;;;;;;;63.65;31.38;;;;;;;16.41;38.07;98493.84;5066429;28;20479;-77
2023/02/14 09:47:37;;;;;;;61.72;30.95;;;;;;;17.94;36.07;98528.53;5060251;28;20066;-77
2023/02/14 09:50:05;;;;;;;47.72;26.40;;;;;;;17.92;35.13;98498.03;5067785;28;20030;-76
2023/02/14 09:52:32;;;;;;;53.78;28.25;;;;;;;18.26;35.17;98493.56;5060792;28;20097;-75
2023/02/14 09:55:00;;;;;;;56.45;29.60;;;;;;;19.26;34.16;98518.06;5086221;28;20023;-76
2023/02/14 09:57:36;;;;;;;43.90;23.25;;;;;;;19.93;33.03;98499.78;5093067;28;20080;-76
2023/02/14 10:00:18;;;;;;;32.80;18.67;;;;;;;19.21;33.43;98464.19;5069623;28;20044;-76
2023/02/14 10:03:15;;;;;;;32.42;19.65;;;;;;;19.54;33.37;98455.13;5078937;28;20028;-78
2023/02/14 10:06:06;;;;;;;35.10;18.95;;;;;;;17.68;34.75;98408.75;4998557;28;20036;-76
2023/02/14 10:08:56;;;;;;;33.33;18.75;;;;;;;18.71;34.20;98449.31;5063990;28;20031;-75
2023/02/14 10:11:23;;;;;;;39.58;21.20;;;;;;;17.33;35.95;98415.94;5081089;28;20031;-77
2023/02/14 10:14:11;;;;;;;33.17;17.90;;;;;;;15.71;38.65;98396.19;5087050;28;20026;-76
2023/02/14 10:16:46;;;;;;;28.27;14.63;;;;;;;15.43;39.18;98412.50;5073250;28;20172;-76
2023/02/14 10:19:27;;;;;;;33.42;15.48;;;;;;;13.74;41.87;98386.69;5080886;28;20064;-76
2023/02/14 10:22:00;;;;;;;33.50;15.35;;;;;;;13.86;42.77;98407.47;5080840;28;20073;-76
2023/02/14 10:24:31;;;;;;;27.10;14.23;;;;;;;14.19;41.82;98415.25;5069382;28;20028;-77
2023/02/14 10:27:05;;;;;;;28.90;15.25;;;;;;;14.60;40.95;98431.53;5097654;28;20028;-75
2023/02/14 10:29:30;;;;;;;26.08;13.52;;;;;;;14.67;41.21;98415.84;5061660;28;20062;-76
2023/02/14 10:32:01;;;;;;;59.88;16.75;;;;;;;14.19;41.38;98392.84;5083731;28;20056;-77
2023/02/14 10:34:51;;;;;;;25.15;13.38;;;;;;;12.94;43.49;98386.13;5087745;28;20524;-76
2023/02/14 10:37:29;;;;;;;34.67;12.98;;;;;;;12.50;44.08;98376.09;5075610;28;20020;-76
2023/02/14 10:40:13;;;;;;;70.45;25.42;;;;;;;11.69;45.14;98351.97;5080241;28;20477;-77
2023/02/14 10:42:57;;;;;;;183.35;47.00;;;;;;;11.72;45.88;98367.94;5101364;28;20106;-76
2023/02/14 10:45:34;;;;;;;23.38;12.13;;;;;;;12.44;44.63;98395.22;5073111;28;20024;-77
2023/02/14 10:48:12;;;;;;;26.50;12.63;;;;;;;12.65;44.29;98397.66;5106999;28;20027;-76
2023/02/14 10:51:05;;;;;;;24.13;11.35;;;;;;;12.55;44.20;98393.78;5085528;28;20085;-76
2023/02/14 10:53:43;;;;;;;28.85;12.02;;;;;;;11.57;46.91;98383.91;5077580;28;20081;-76
2023/02/14 10:56:23;;;;;;;30.25;12.07;;;;;;;10.29;48.52;98360.94;5081162;28;20041;-76
2023/02/14 10:58:50;;;;;;;24.00;12.30;;;;;;;10.06;50.24;98363.78;5066485;28;20028;-76
2023/02/14 11:01:19;;;;;;;27.33;12.43;;;;;;;9.77;50.85;98372.28;5071634;28;20040;-77
2023/02/14 11:03:47;;;;;;;25.38;11.45;;;;;;;9.66;51.12;98383.44;5068339;28;20071;-75
2023/02/14 11:06:13;;;;;;;27.13;11.35;;;;;;;9.52;52.24;98385.00;5111679;28;20105;-76
2023/02/14 11:08:40;;;;;;;24.33;11.02;;;;;;;9.45;52.83;98391.53;5062143;28;20036;-76
2023/02/14 11:11:25;;;;;;;25.55;12.40;;;;;;;9.16;54.08;98393.69;5079471;28;20068;-76
2023/02/14 11:13:51;;;;;;;29.83;13.23;;;;;;;9.06;55.35;98396.81;5067915;28;20035;-76
2023/02/14 11:16:34;;;;;;;31.02;13.63;;;;;;;9.12;56.84;98410.75;5069275;28;20349;-76
2023/02/14 11:19:13;;;;;;;36.67;14.05;;;;;;;8.80;60.36;98419.22;5062598;28;20081;-76
2023/02/14 11:21:40;;;;;;;27.10;12.52;;;;;;;9.05;59.03;98422.63;5105968;28;20069;-76
2023/02/14 11:24:17;;;;;;;30.63;13.13;;;;;;;8.93;61.16;98431.13;5065837;28;20023;-75
2023/02/14 11:26:48;;;;;;;36.17;14.65;;;;;;;8.82;62.54;98432.50;5088374;28;20119;-77
2023/02/14 11:29:24;;;;;;;29.67;14.02;;;;;;;8.84;62.33;98442.19;5056909;28;20039;-76
2023/02/14 11:31:50;;;;;;;28.85;14.02;;;;;;;8.70;64.15;98442.72;5071721;28;20019;-76
2023/02/14 11:34:38;;;;;;;27.83;13.15;;;;;;;8.76;63.58;98448.78;5069764;28;20044;-76
2023/02/14 11:37:21;;;;;;;28.13;12.88;;;;;;;8.48;64.29;98438.34;5060398;28;20514;-75
2023/02/14 11:39:46;;;;;;;33.25;14.40;;;;;;;8.56;66.25;98447.75;5076586;28;20096;-75
2023/02/14 11:42:12;;;;;;;28.23;13.68;;;;;;;8.86;64.86;98453.66;5068870;28;20015;-75